sensor_id;sensor_type;location;lat;lon;timestamp;P1;P2;P0
72918;PMS7003;61063;55.700;26.994;2022-12-07T00:00:04;7.9;5.1;3.7
72918;PMS7003;61063;55.700;26.994;2022-12-07T00:04:40;6.6;5.3;3.9
72918;PMS7003;61063;55.700;26.994;2022-12-07T00:09:52;7;6.1;4.3
72918;PMS7003;61063;55.700;26.994;2022-12-07T00:14:38;8.4;7.1;5.3
72918;PMS7003;61063;55.700;26.994;2022-12-07T00:19:52;7.3;5.9;4.4
72918;PMS7003;61063;55.700;26.994;2022-12-07T00:25:04;7.9;5.7;4.1
72918;PMS7003;61063;55.700;26.994;2022-12-07T00:30:04;8.1;6.4;4.9
72918;PMS7003;61063;55.700;26.994;2022-12-07T00:35:04;8.3;7.2;5.4
72918;PMS7003;61063;55.700;26.994;2022-12-07T00:39:50;9.1;7.4;6.1
72918;PMS7003;61063;55.700;26.994;2022-12-07T00:45:02;8.8;6.8;5.1
72918;PMS7003;61063;55.700;26.994;2022-12-07T00:49:28;8.5;7.1;5.6
72918;PMS7003;61063;55.700;26.994;2022-12-07T00:55:02;8.1;6.6;4.8
72918;PMS7003;61063;55.700;26.994;2022-12-07T00:59:38;9;7.3;5.5
72918;PMS7003;61063;55.700;26.994;2022-12-07T01:05:02;7.3;5.3;4.3
72918;PMS7003;61063;55.700;26.994;2022-12-07T01:09:38;7.5;6.2;4.6
72918;PMS7003;61063;55.700;26.994;2022-12-07T01:14:32;7.8;5.9;4.5
72918;PMS7003;61063;55.700;26.994;2022-12-07T01:19:32;7.9;6.1;4.6
72918;PMS7003;61063;55.700;26.994;2022-12-07T01:24:54;7.9;6.2;4.4
72918;PMS7003;61063;55.700;26.994;2022-12-07T01:29:40;8;4.9;3.5
72918;PMS7003;61063;55.700;26.994;2022-12-07T01:34:54;7.6;6;4.7
72918;PMS7003;61063;55.700;26.994;2022-12-07T01:40:07;6.3;5.1;3.5
72918;PMS7003;61063;55.700;26.994;2022-12-07T01:45:40;8.6;6.7;5
72918;PMS7003;61063;55.700;26.994;2022-12-07T01:49:46;6.5;5;3.9
72918;PMS7003;61063;55.700;26.994;2022-12-07T01:54:55;9.1;7.4;5.6
72918;PMS7003;61063;55.700;26.994;2022-12-07T01:59:58;7.6;5.8;4.1
72918;PMS7003;61063;55.700;26.994;2022-12-07T02:04:34;8.5;7.2;5.4
72918;PMS7003;61063;55.700;26.994;2022-12-07T02:10:12;7.6;6.3;4.7
72918;PMS7003;61063;55.700;26.994;2022-12-07T02:14:32;9;7.2;5
72918;PMS7003;61063;55.700;26.994;2022-12-07T02:20:11;8.7;6.9;5.4
72918;PMS7003;61063;55.700;26.994;2022-12-07T02:24:45;8.5;6.7;5.3
72918;PMS7003;61063;55.700;26.994;2022-12-07T02:30:07;6.3;5.3;3.8
72918;PMS7003;61063;55.700;26.994;2022-12-07T02:34:44;8;6.1;4.4
72918;PMS7003;61063;55.700;26.994;2022-12-07T02:39:55;7.4;6.2;4.5
72918;PMS7003;61063;55.700;26.994;2022-12-07T02:45:04;7.6;6;4.5
72918;PMS7003;61063;55.700;26.994;2022-12-07T02:49:54;6.3;5.3;3.8
72918;PMS7003;61063;55.700;26.994;2022-12-07T02:55:06;8;6;4.3
72918;PMS7003;61063;55.700;26.994;2022-12-07T03:00:09;8;6.6;4.8
72918;PMS7003;61063;55.700;26.994;2022-12-07T03:05:12;7.1;5.5;4
72918;PMS7003;61063;55.700;26.994;2022-12-07T03:09:58;7.5;5.6;4.3
72918;PMS7003;61063;55.700;26.994;2022-12-07T03:14:55;8.3;6.4;4.8
72918;PMS7003;61063;55.700;26.994;2022-12-07T03:19:22;8.5;6.4;4.4
72918;PMS7003;61063;55.700;26.994;2022-12-07T03:25:07;7.8;6.4;5
72918;PMS7003;61063;55.700;26.994;2022-12-07T03:29:47;8.8;6.9;5.1
72918;PMS7003;61063;55.700;26.994;2022-12-07T03:35:07;8.5;6.7;5.1
72918;PMS7003;61063;55.700;26.994;2022-12-07T03:39:45;7.4;6.1;4.5
72918;PMS7003;61063;55.700;26.994;2022-12-07T03:44:32;7.8;6.4;4.6
72918;PMS7003;61063;55.700;26.994;2022-12-07T03:49:34;6.8;5.1;3.7
72918;PMS7003;61063;55.700;26.994;2022-12-07T03:54:56;7.9;6.3;4.6
72918;PMS7003;61063;55.700;26.994;2022-12-07T04:00:09;8.1;5.6;4.4
72918;PMS7003;61063;55.700;26.994;2022-12-07T04:05:09;6.9;5;3.4
72918;PMS7003;61063;55.700;26.994;2022-12-07T04:09:32;6.4;5.3;4.3
72918;PMS7003;61063;55.700;26.994;2022-12-07T04:14:52;7.9;6.6;5
72918;PMS7003;61063;55.700;26.994;2022-12-07T04:19:56;8.3;6.6;4.8
72918;PMS7003;61063;55.700;26.994;2022-12-07T04:24:54;7.8;5.5;3.9
72918;PMS7003;61063;55.700;26.994;2022-12-07T04:30:06;7.3;6.1;4.9
72918;PMS7003;61063;55.700;26.994;2022-12-07T04:34:30;6.2;4.8;3.4
72918;PMS7003;61063;55.700;26.994;2022-12-07T04:39:38;7.5;5.8;4.2
72918;PMS7003;61063;55.700;26.994;2022-12-07T04:44:52;8.1;6.2;4.3
72918;PMS7003;61063;55.700;26.994;2022-12-07T04:49:40;6.9;5.9;4.4
72918;PMS7003;61063;55.700;26.994;2022-12-07T04:55:06;6.7;5.5;3.9
72918;PMS7003;61063;55.700;26.994;2022-12-07T05:00:08;7.9;6.1;4.4
72918;PMS7003;61063;55.700;26.994;2022-12-07T05:04:58;7.9;6.1;4.6
72918;PMS7003;61063;55.700;26.994;2022-12-07T05:09:42;7.6;5.8;3.8
72918;PMS7003;61063;55.700;26.994;2022-12-07T05:15:04;6.3;5.4;4
72918;PMS7003;61063;55.700;26.994;2022-12-07T05:20:05;6.8;5.6;4.4
72918;PMS7003;61063;55.700;26.994;2022-12-07T05:25:06;7.1;5.8;4.6
72918;PMS7003;61063;55.700;26.994;2022-12-07T05:29:52;6.2;5.1;3.9
72918;PMS7003;61063;55.700;26.994;2022-12-07T05:34:54;7.5;6.1;4.1
72918;PMS7003;61063;55.700;26.994;2022-12-07T05:39:50;8.1;5.3;4.2
72918;PMS7003;61063;55.700;26.994;2022-12-07T05:44:43;7.8;6.3;4.5
72918;PMS7003;61063;55.700;26.994;2022-12-07T05:49:32;6.9;6.1;4.5
72918;PMS7003;61063;55.700;26.994;2022-12-07T05:54:42;7.3;5.5;4.1
72918;PMS7003;61063;55.700;26.994;2022-12-07T05:59:50;7.8;5.9;4.3
72918;PMS7003;61063;55.700;26.994;2022-12-07T06:04:29;8.2;6.7;4.7
72918;PMS7003;61063;55.700;26.994;2022-12-07T06:10:02;8.2;6.1;4.3
72918;PMS7003;61063;55.700;26.994;2022-12-07T06:15:00;7.3;5.7;4.3
72918;PMS7003;61063;55.700;26.994;2022-12-07T06:19:58;8.6;7.1;5.2
72918;PMS7003;61063;55.700;26.994;2022-12-07T06:24:30;8.6;6.2;4.6
72918;PMS7003;61063;55.700;26.994;2022-12-07T06:30:08;6.8;5.5;4
72918;PMS7003;61063;55.700;26.994;2022-12-07T06:35:06;9.1;6.6;4.8
72918;PMS7003;61063;55.700;26.994;2022-12-07T06:39:34;7.1;5.8;4.4
72918;PMS7003;61063;55.700;26.994;2022-12-07T06:44:52;8.7;7.4;5.4
72918;PMS7003;61063;55.700;26.994;2022-12-07T06:49:52;9.5;6.8;5
72918;PMS7003;61063;55.700;26.994;2022-12-07T06:54:50;9;7;5.4
72918;PMS7003;61063;55.700;26.994;2022-12-07T06:59:40;9.1;6.6;5.1
72918;PMS7003;61063;55.700;26.994;2022-12-07T07:04:20;7.4;5.6;3.9
72918;PMS7003;61063;55.700;26.994;2022-12-07T07:09:30;8;6.2;4.4
72918;PMS7003;61063;55.700;26.994;2022-12-07T07:14:50;7.8;6.5;4.7
72918;PMS7003;61063;55.700;26.994;2022-12-07T07:19:38;8.6;6.6;5
72918;PMS7003;61063;55.700;26.994;2022-12-07T07:25:02;7.3;5.6;4.1
72918;PMS7003;61063;55.700;26.994;2022-12-07T07:29:42;7.3;5.8;4.4
72918;PMS7003;61063;55.700;26.994;2022-12-07T07:34:24;9.1;7;5.4
72918;PMS7003;61063;55.700;26.994;2022-12-07T07:39:30;10.8;7.7;5.9
72918;PMS7003;61063;55.700;26.994;2022-12-07T07:45:04;7.7;6.3;4.6
72918;PMS7003;61063;55.700;26.994;2022-12-07T07:50:05;8.8;7.1;5.6
72918;PMS7003;61063;55.700;26.994;2022-12-07T07:54:30;10.1;7.3;5.7
72918;PMS7003;61063;55.700;26.994;2022-12-07T07:59:52;9.2;7;5.1
72918;PMS7003;61063;55.700;26.994;2022-12-07T08:04:56;8.9;7.6;5.8
72918;PMS7003;61063;55.700;26.994;2022-12-07T08:09:50;9.1;6.9;5.2
72918;PMS7003;61063;55.700;26.994;2022-12-07T08:14:38;9.5;7.5;5.6
72918;PMS7003;61063;55.700;26.994;2022-12-07T08:20:07;9.5;6.9;5.3
72918;PMS7003;61063;55.700;26.994;2022-12-07T08:24:33;8.7;6.8;5
72918;PMS7003;61063;55.700;26.994;2022-12-07T08:29:52;9.2;7.4;6
72918;PMS7003;61063;55.700;26.994;2022-12-07T08:35:07;9.1;6.9;5.5
72918;PMS7003;61063;55.700;26.994;2022-12-07T08:40:07;8.1;6.6;4.7
72918;PMS7003;61063;55.700;26.994;2022-12-07T08:44:32;9.5;7.6;5.4
72918;PMS7003;61063;55.700;26.994;2022-12-07T08:49:45;8.6;7.1;5.2
72918;PMS7003;61063;55.700;26.994;2022-12-07T08:54:44;8.7;6.9;5.2
72918;PMS7003;61063;55.700;26.994;2022-12-07T09:00:07;9.7;7.2;5.9
72918;PMS7003;61063;55.700;26.994;2022-12-07T09:05:04;9.1;7.1;5.3
72918;PMS7003;61063;55.700;26.994;2022-12-07T09:10:06;8.4;6.3;4.8
72918;PMS7003;61063;55.700;26.994;2022-12-07T09:14:50;9.6;7.2;5.5
72918;PMS7003;61063;55.700;26.994;2022-12-07T09:20:05;9.2;7.2;5.6
72918;PMS7003;61063;55.700;26.994;2022-12-07T09:24:52;7.1;5.9;4.4
72918;PMS7003;61063;55.700;26.994;2022-12-07T09:29:44;9.1;7.3;5.3
72918;PMS7003;61063;55.700;26.994;2022-12-07T09:34:30;7.3;6.6;5.1
72918;PMS7003;61063;55.700;26.994;2022-12-07T09:39:30;7.9;7.1;5.4
72918;PMS7003;61063;55.700;26.994;2022-12-07T09:45:06;8.1;6.2;4.9
72918;PMS7003;61063;55.700;26.994;2022-12-07T09:49:50;8;6.4;4.6
72918;PMS7003;61063;55.700;26.994;2022-12-07T09:55:08;7;5.1;3.8
72918;PMS7003;61063;55.700;26.994;2022-12-07T09:59:32;7.6;6.2;4.6
72918;PMS7003;61063;55.700;26.994;2022-12-07T10:04:57;8.1;6.2;4.8
72918;PMS7003;61063;55.700;26.994;2022-12-07T10:09:42;7.9;6.6;4.7
72918;PMS7003;61063;55.700;26.994;2022-12-07T10:15:04;7.9;7.1;5.2
72918;PMS7003;61063;55.700;26.994;2022-12-07T10:20:16;6.8;5;3.8
72918;PMS7003;61063;55.700;26.994;2022-12-07T10:25:08;7.5;5.9;4.5
72918;PMS7003;61063;55.700;26.994;2022-12-07T10:29:54;6.9;5.3;3.9
72918;PMS7003;61063;55.700;26.994;2022-12-07T10:35:30;7.6;6.2;4.3
72918;PMS7003;61063;55.700;26.994;2022-12-07T10:39:39;8;6.5;4.9
72918;PMS7003;61063;55.700;26.994;2022-12-07T10:44:40;8.4;7.1;5.1
72918;PMS7003;61063;55.700;26.994;2022-12-07T10:49:50;7.6;6.4;4.7
72918;PMS7003;61063;55.700;26.994;2022-12-07T10:54:44;8.6;6.4;4.8
72918;PMS7003;61063;55.700;26.994;2022-12-07T10:59:54;9.1;6.6;4.7
72918;PMS7003;61063;55.700;26.994;2022-12-07T11:04:41;8.8;6.4;4.8
72918;PMS7003;61063;55.700;26.994;2022-12-07T11:10:05;8.3;6.9;4.9
72918;PMS7003;61063;55.700;26.994;2022-12-07T11:14:31;7.7;6.2;4.5
72918;PMS7003;61063;55.700;26.994;2022-12-07T11:19:59;8;6.3;4.4
72918;PMS7003;61063;55.700;26.994;2022-12-07T11:24:44;7.8;6.2;4.4
72918;PMS7003;61063;55.700;26.994;2022-12-07T11:30:16;8.3;6.2;4.7
72918;PMS7003;61063;55.700;26.994;2022-12-07T11:35:05;5.9;4.8;3.6
72918;PMS7003;61063;55.700;26.994;2022-12-07T11:39:33;7.4;5.7;4.3
72918;PMS7003;61063;55.700;26.994;2022-12-07T11:44:53;7.4;6.1;4.4
72918;PMS7003;61063;55.700;26.994;2022-12-07T11:49:55;7.5;5.5;4.3
72918;PMS7003;61063;55.700;26.994;2022-12-07T11:54:52;7.2;5.7;4.4
72918;PMS7003;61063;55.700;26.994;2022-12-07T11:59:43;6.8;5.6;4.3
72918;PMS7003;61063;55.700;26.994;2022-12-07T12:05:05;8;6.6;5
72918;PMS7003;61063;55.700;26.994;2022-12-07T12:09:43;8.5;6.2;4.2
72918;PMS7003;61063;55.700;26.994;2022-12-07T12:14:56;8.2;6.8;4.9
72918;PMS7003;61063;55.700;26.994;2022-12-07T12:19:41;7.4;6.6;5.1
72918;PMS7003;61063;55.700;26.994;2022-12-07T12:25:03;8.1;6.3;4.6
72918;PMS7003;61063;55.700;26.994;2022-12-07T12:29:42;8;6.1;4.7
72918;PMS7003;61063;55.700;26.994;2022-12-07T12:34:59;8.4;7.1;5.1
72918;PMS7003;61063;55.700;26.994;2022-12-07T12:39:33;8.5;6.7;4.9
72918;PMS7003;61063;55.700;26.994;2022-12-07T12:46:04;8.5;6.4;4.9
72918;PMS7003;61063;55.700;26.994;2022-12-07T12:50:15;7.1;5.1;3.8
72918;PMS7003;61063;55.700;26.994;2022-12-07T12:54:35;6.6;4.8;3.3
72918;PMS7003;61063;55.700;26.994;2022-12-07T12:59:56;8.4;6.5;4.8
72918;PMS7003;61063;55.700;26.994;2022-12-07T13:04:57;8.1;6.2;4.9
72918;PMS7003;61063;55.700;26.994;2022-12-07T13:09:54;9.4;6.6;4.9
72918;PMS7003;61063;55.700;26.994;2022-12-07T13:14:51;7.4;6.1;4.4
72918;PMS7003;61063;55.700;26.994;2022-12-07T13:20:05;8.6;6.9;5.1
72918;PMS7003;61063;55.700;26.994;2022-12-07T13:24:42;8.4;6.9;5.4
72918;PMS7003;61063;55.700;26.994;2022-12-07T13:30:07;9.6;7.3;5.6
72918;PMS7003;61063;55.700;26.994;2022-12-07T13:34:41;8.9;6.1;4.5
72918;PMS7003;61063;55.700;26.994;2022-12-07T13:40:12;8.4;6.5;5.1
72918;PMS7003;61063;55.700;26.994;2022-12-07T13:44:23;7.9;6.6;4.7
72918;PMS7003;61063;55.700;26.994;2022-12-07T13:49:36;7.9;5.9;4.5
72918;PMS7003;61063;55.700;26.994;2022-12-07T13:54:32;6.9;5.7;4.7
72918;PMS7003;61063;55.700;26.994;2022-12-07T13:59:54;6.8;5.5;3.9
72918;PMS7003;61063;55.700;26.994;2022-12-07T14:05:08;8.4;5.9;4.3
72918;PMS7003;61063;55.700;26.994;2022-12-07T14:10:05;7.3;5.7;4.1
72918;PMS7003;61063;55.700;26.994;2022-12-07T14:15:05;7.4;6.1;4.6
72918;PMS7003;61063;55.700;26.994;2022-12-07T14:19:40;7.1;6;4.9
72918;PMS7003;61063;55.700;26.994;2022-12-07T14:24:58;8;5.7;4.1
72918;PMS7003;61063;55.700;26.994;2022-12-07T14:29:43;8.9;5.9;4.6
72918;PMS7003;61063;55.700;26.994;2022-12-07T14:34:30;6.8;5.2;3.8
72918;PMS7003;61063;55.700;26.994;2022-12-07T14:39:42;6.6;4.9;3.7
72918;PMS7003;61063;55.700;26.994;2022-12-07T14:45:05;8.2;5.6;4.4
72918;PMS7003;61063;55.700;26.994;2022-12-07T14:49:41;7;4.7;3.7
72918;PMS7003;61063;55.700;26.994;2022-12-07T14:55:07;7.5;5.8;4.4
72918;PMS7003;61063;55.700;26.994;2022-12-07T15:00:08;6.1;5.2;3.3
72918;PMS7003;61063;55.700;26.994;2022-12-07T15:04:34;6.3;5;3.8
72918;PMS7003;61063;55.700;26.994;2022-12-07T15:09:42;7.3;5.6;4.3
72918;PMS7003;61063;55.700;26.994;2022-12-07T15:14:52;5.7;4.4;3.4
72918;PMS7003;61063;55.700;26.994;2022-12-07T15:20:08;7.2;5;3.9
72918;PMS7003;61063;55.700;26.994;2022-12-07T15:25:07;6.1;4.8;3.4
72918;PMS7003;61063;55.700;26.994;2022-12-07T15:29:34;8;5.6;3.8
72918;PMS7003;61063;55.700;26.994;2022-12-07T15:34:57;7.1;5.6;4.3
72918;PMS7003;61063;55.700;26.994;2022-12-07T15:39:53;8;6.2;4.6
72918;PMS7003;61063;55.700;26.994;2022-12-07T15:44:42;5.8;5;3.8
72918;PMS7003;61063;55.700;26.994;2022-12-07T15:49:43;7.1;5.8;4.3
72918;PMS7003;61063;55.700;26.994;2022-12-07T15:54:35;7.4;5.9;4.2
72918;PMS7003;61063;55.700;26.994;2022-12-07T16:00:08;7.4;6.2;4.8
72918;PMS7003;61063;55.700;26.994;2022-12-07T16:05:07;7.5;6;4.6
72918;PMS7003;61063;55.700;26.994;2022-12-07T16:10:07;7.5;5.5;3.6
72918;PMS7003;61063;55.700;26.994;2022-12-07T16:15:05;9;6.6;4.8
72918;PMS7003;61063;55.700;26.994;2022-12-07T16:19:31;8.1;5.9;4.6
72918;PMS7003;61063;55.700;26.994;2022-12-07T16:24:45;7.5;6.1;4.6
72918;PMS7003;61063;55.700;26.994;2022-12-07T16:29:55;7.3;6;4.6
72918;PMS7003;61063;55.700;26.994;2022-12-07T16:35:08;7.6;5.7;4.3
72918;PMS7003;61063;55.700;26.994;2022-12-07T16:39:43;6.6;5.4;4.1
72918;PMS7003;61063;55.700;26.994;2022-12-07T16:45:03;6.8;5.5;4.1
72918;PMS7003;61063;55.700;26.994;2022-12-07T16:49:57;8.1;6.4;5.3
72918;PMS7003;61063;55.700;26.994;2022-12-07T16:54:55;8.6;6.2;4.5
72918;PMS7003;61063;55.700;26.994;2022-12-07T16:59:45;7;5.6;4.5
72918;PMS7003;61063;55.700;26.994;2022-12-07T17:05:05;7.6;6.2;4.6
72918;PMS7003;61063;55.700;26.994;2022-12-07T17:10:05;7.6;5.8;4.2
72918;PMS7003;61063;55.700;26.994;2022-12-07T17:14:53;7.7;4.9;3.4
72918;PMS7003;61063;55.700;26.994;2022-12-07T17:19:45;8.1;6;4.4
72918;PMS7003;61063;55.700;26.994;2022-12-07T17:25:05;7.8;6.9;5.4
72918;PMS7003;61063;55.700;26.994;2022-12-07T17:29:33;7.6;6.2;4.7
72918;PMS7003;61063;55.700;26.994;2022-12-07T17:35:05;8.6;6.8;5.2
72918;PMS7003;61063;55.700;26.994;2022-12-07T17:39:45;7.3;6.4;4.8
72918;PMS7003;61063;55.700;26.994;2022-12-07T17:44:53;8.4;6.3;4.5
72918;PMS7003;61063;55.700;26.994;2022-12-07T17:49:55;7.7;5;3.4
72918;PMS7003;61063;55.700;26.994;2022-12-07T17:55:07;8.5;6.6;4.9
72918;PMS7003;61063;55.700;26.994;2022-12-07T18:00:05;8.7;6.6;4.6
72918;PMS7003;61063;55.700;26.994;2022-12-07T18:05:07;8.1;6.1;4.4
72918;PMS7003;61063;55.700;26.994;2022-12-07T18:09:35;7.8;6.1;4.6
72918;PMS7003;61063;55.700;26.994;2022-12-07T18:14:41;7.2;6.1;4.5
72918;PMS7003;61063;55.700;26.994;2022-12-07T18:19:55;6.6;4.8;3.5
72918;PMS7003;61063;55.700;26.994;2022-12-07T18:24:35;7;5.2;4
72918;PMS7003;61063;55.700;26.994;2022-12-07T18:30:05;5.9;4.2;3.1
72918;PMS7003;61063;55.700;26.994;2022-12-07T18:34:31;7;5.9;4.1
72918;PMS7003;61063;55.700;26.994;2022-12-07T18:40:07;8.3;6.4;4.8
72918;PMS7003;61063;55.700;26.994;2022-12-07T18:44:55;7;5.3;3.9
72918;PMS7003;61063;55.700;26.994;2022-12-07T18:50:05;6.6;4.7;3.5
72918;PMS7003;61063;55.700;26.994;2022-12-07T18:54:43;6.7;6.2;4.7
72918;PMS7003;61063;55.700;26.994;2022-12-07T18:59:35;7.9;6.1;4.4
72918;PMS7003;61063;55.700;26.994;2022-12-07T19:04:57;7.1;5.6;4.2
72918;PMS7003;61063;55.700;26.994;2022-12-07T19:10:07;6.9;5.8;4.2
72918;PMS7003;61063;55.700;26.994;2022-12-07T19:14:41;7.2;5.4;4.4
72918;PMS7003;61063;55.700;26.994;2022-12-07T19:19:33;7.6;5.9;4.2
72918;PMS7003;61063;55.700;26.994;2022-12-07T19:24:43;7.6;6;4.4
72918;PMS7003;61063;55.700;26.994;2022-12-07T19:29:45;6.5;5.2;4
72918;PMS7003;61063;55.700;26.994;2022-12-07T19:34:57;5.9;4.9;3.7
72918;PMS7003;61063;55.700;26.994;2022-12-07T19:40:07;7;5.2;3.8
72918;PMS7003;61063;55.700;26.994;2022-12-07T19:45:05;7.2;5.8;4.3
72918;PMS7003;61063;55.700;26.994;2022-12-07T19:49:41;6.2;5.1;3.7
72918;PMS7003;61063;55.700;26.994;2022-12-07T19:55:05;7.2;5.5;4
72918;PMS7003;61063;55.700;26.994;2022-12-07T19:59:43;7.7;5.1;3.7
72918;PMS7003;61063;55.700;26.994;2022-12-07T20:04:33;7.2;5.6;4.2
72918;PMS7003;61063;55.700;26.994;2022-12-07T20:09:45;7.6;5.9;4.7
72918;PMS7003;61063;55.700;26.994;2022-12-07T20:14:53;7.9;6.6;4.7
72918;PMS7003;61063;55.700;26.994;2022-12-07T20:19:55;7.8;6.1;4.8
72918;PMS7003;61063;55.700;26.994;2022-12-07T20:24:53;7.6;5.8;4.2
72918;PMS7003;61063;55.700;26.994;2022-12-07T20:30:05;7.5;6.7;5
72918;PMS7003;61063;55.700;26.994;2022-12-07T20:35:05;8.6;6.2;5.1
72918;PMS7003;61063;55.700;26.994;2022-12-07T20:39:53;8.5;7.2;5.4
72918;PMS7003;61063;55.700;26.994;2022-12-07T20:44:43;8.1;6.7;5.4
72918;PMS7003;61063;55.700;26.994;2022-12-07T20:49:55;9.6;7.6;5.7
72918;PMS7003;61063;55.700;26.994;2022-12-07T20:55:05;9;7.8;6.2
72918;PMS7003;61063;55.700;26.994;2022-12-07T21:00:05;7.7;6.6;5.2
72918;PMS7003;61063;55.700;26.994;2022-12-07T21:04:41;8.3;6.4;5.1
72918;PMS7003;61063;55.700;26.994;2022-12-07T21:10:07;8.2;5.8;4.4
72918;PMS7003;61063;55.700;26.994;2022-12-07T21:14:45;6.1;4.4;3.6
72918;PMS7003;61063;55.700;26.994;2022-12-07T21:19:23;4.8;4;3.1
72918;PMS7003;61063;55.700;26.994;2022-12-07T21:24:57;5.4;4.3;3.6
72918;PMS7003;61063;55.700;26.994;2022-12-07T21:29:55;5.9;4.4;3.5
72918;PMS7003;61063;55.700;26.994;2022-12-07T21:34:55;5.6;4.1;3.2
72918;PMS7003;61063;55.700;26.994;2022-12-07T21:40:07;4.9;4.2;3.3
72918;PMS7003;61063;55.700;26.994;2022-12-07T21:44:29;5;4;3.3
72918;PMS7003;61063;55.700;26.994;2022-12-07T21:50:03;4.5;3.6;3
72918;PMS7003;61063;55.700;26.994;2022-12-07T21:54:25;5.2;3.2;2.6
72918;PMS7003;61063;55.700;26.994;2022-12-07T21:59:51;4;3.4;2.9
72918;PMS7003;61063;55.700;26.994;2022-12-07T22:04:53;4.5;3.4;2.8
72918;PMS7003;61063;55.700;26.994;2022-12-07T22:09:39;4.2;3.3;2.7
72918;PMS7003;61063;55.700;26.994;2022-12-07T22:14:59;4.3;2.8;2.2
72918;PMS7003;61063;55.700;26.994;2022-12-07T22:19:37;3.3;2.8;2.2
72918;PMS7003;61063;55.700;26.994;2022-12-07T22:24:51;4.3;3.1;2.6
72918;PMS7003;61063;55.700;26.994;2022-12-07T22:29:39;3.2;2.7;2.1
72918;PMS7003;61063;55.700;26.994;2022-12-07T22:34:37;2.9;2;1.6
72918;PMS7003;61063;55.700;26.994;2022-12-07T22:39:41;3.1;2;1.8
72918;PMS7003;61063;55.700;26.994;2022-12-07T22:44:49;3.1;2.1;1.6
72918;PMS7003;61063;55.700;26.994;2022-12-07T22:49:31;3.1;2.2;1.7
72918;PMS7003;61063;55.700;26.994;2022-12-07T22:54:51;2.4;1.9;1.4
72918;PMS7003;61063;55.700;26.994;2022-12-07T23:00:03;2.6;1.6;1.3
72918;PMS7003;61063;55.700;26.994;2022-12-07T23:05:01;2.7;1.9;1.5
72918;PMS7003;61063;55.700;26.994;2022-12-07T23:10:01;2.7;1.8;1.5
72918;PMS7003;61063;55.700;26.994;2022-12-07T23:14:49;1.9;1.4;1.2
72918;PMS7003;61063;55.700;26.994;2022-12-07T23:19:51;1.6;1.2;0.9
72918;PMS7003;61063;55.700;26.994;2022-12-07T23:25:01;2.1;1.2;0.9
72918;PMS7003;61063;55.700;26.994;2022-12-07T23:30:01;1.6;1.1;0.8
72918;PMS7003;61063;55.700;26.994;2022-12-07T23:34:39;1.8;1.4;1.1
72918;PMS7003;61063;55.700;26.994;2022-12-07T23:40:03;1.9;1.6;1.3
72918;PMS7003;61063;55.700;26.994;2022-12-07T23:44:39;1.8;1.3;1
72918;PMS7003;61063;55.700;26.994;2022-12-07T23:50:01;2.2;1.6;1.2
72918;PMS7003;61063;55.700;26.994;2022-12-07T23:54:39;1.6;1.1;0.9
72918;PMS7003;61063;55.700;26.994;2022-12-07T23:59:49;1.5;1.3;1.1
